createdAt,value
2019-03-20T00:01:53.852Z,101352.53
2019-03-20T00:05:58.062Z,101362.23
2019-03-20T00:10:02.578Z,101363.33
2019-03-20T00:14:06.874Z,101372.22
2019-03-20T00:18:11.097Z,101372.22
2019-03-20T00:22:15.379Z,101380.88
2019-03-20T00:26:19.613Z,101378.74
2019-03-20T00:30:23.816Z,101379.97
2019-03-20T00:34:27.982Z,101383.41
2019-03-20T00:38:32.211Z,101378.45
2019-03-20T00:42:36.623Z,101377.64
2019-03-20T00:46:40.848Z,101375.25
2019-03-20T00:50:45.091Z,101376.00
2019-03-20T00:54:49.553Z,101382.35
2019-03-20T00:58:53.830Z,101378.27
2019-03-20T01:02:58.077Z,101378.52
2019-03-20T01:07:02.250Z,101380.32
2019-03-20T01:11:06.473Z,101385.36
2019-03-20T01:15:10.658Z,101387.92
2019-03-20T01:19:15.011Z,101388.89
2019-03-20T01:23:19.519Z,101384.06
2019-03-20T01:27:23.748Z,101385.45
2019-03-20T01:31:28.017Z,101392.30
2019-03-20T01:35:32.207Z,101390.53
2019-03-20T01:39:36.785Z,101395.66
2019-03-20T01:43:40.998Z,101394.27
2019-03-20T01:47:45.213Z,101390.01
2019-03-20T01:51:49.423Z,101395.38
2019-03-20T01:55:53.676Z,101391.62
2019-03-20T01:59:58.004Z,101393.17
2019-03-20T02:04:02.544Z,101392.11
2019-03-20T02:08:06.927Z,101399.93
2019-03-20T02:12:11.244Z,101404.59
2019-03-20T02:16:15.405Z,101399.11
2019-03-20T02:20:20.067Z,101400.14
2019-03-20T02:24:24.237Z,101402.61
2019-03-20T02:28:28.445Z,101404.62
2019-03-20T02:32:32.619Z,101398.20
2019-03-20T02:36:36.859Z,101409.17
2019-03-20T02:40:41.069Z,101408.38
2019-03-20T02:44:45.282Z,101406.42
2019-03-20T02:48:49.491Z,101410.83
2019-03-20T02:52:53.689Z,101406.75
2019-03-20T02:56:57.922Z,101407.73
2019-03-20T03:01:02.134Z,101407.46
2019-03-20T03:05:07.249Z,101404.53
2019-03-20T03:09:11.464Z,101414.03
2019-03-20T03:13:15.666Z,101414.54
2019-03-20T03:17:19.948Z,101414.86
2019-03-20T03:21:24.151Z,101422.59
2019-03-20T03:25:28.421Z,101421.02
2019-03-20T03:29:32.761Z,101424.59
2019-03-20T03:33:36.991Z,101424.73
2019-03-20T03:37:41.159Z,101432.55
2019-03-20T03:41:45.378Z,101431.86
2019-03-20T03:45:49.948Z,101432.19
2019-03-20T03:49:54.314Z,101433.95
2019-03-20T03:53:58.463Z,101442.08
2019-03-20T03:58:02.702Z,101442.97
2019-03-20T04:02:07.084Z,101437.58
2019-03-20T04:06:11.306Z,101446.13
2019-03-20T04:10:15.726Z,101444.64
2019-03-20T04:14:20.233Z,101448.54
2019-03-20T04:18:24.443Z,101456.67
2019-03-20T04:22:28.612Z,101458.30
2019-03-20T04:26:32.836Z,101448.27
2019-03-20T04:30:37.073Z,101459.98
2019-03-20T04:34:41.259Z,101456.99
2019-03-20T04:38:45.484Z,101460.58
2019-03-20T04:42:49.812Z,101472.95
2019-03-20T04:46:54.064Z,101470.35
2019-03-20T04:50:58.247Z,101471.61
2019-03-20T04:55:02.464Z,101474.63
2019-03-20T04:59:06.665Z,101485.52
2019-03-20T05:03:10.988Z,101496.12
2019-03-20T05:07:15.234Z,101488.09
2019-03-20T05:11:19.434Z,101487.77
2019-03-20T05:15:23.584Z,101498.59
2019-03-20T05:19:28.033Z,101504.79
2019-03-20T05:23:32.235Z,101514.31
2019-03-20T05:27:36.465Z,101518.56
2019-03-20T05:31:40.680Z,101523.27
2019-03-20T05:35:44.958Z,101529.22
2019-03-20T05:39:49.302Z,101541.80
2019-03-20T05:43:53.577Z,101549.75
2019-03-20T05:47:57.816Z,101552.13
2019-03-20T05:52:02.083Z,101559.30
2019-03-20T05:56:06.298Z,101553.16
2019-03-20T06:00:12.584Z,101561.35
2019-03-20T06:04:16.851Z,101571.78
2019-03-20T06:08:21.148Z,101584.20
2019-03-20T06:12:25.364Z,101580.29
2019-03-20T06:16:29.611Z,101594.12
2019-03-20T06:20:34.093Z,101595.20
2019-03-20T06:24:38.432Z,101601.39
2019-03-20T06:28:42.726Z,101615.53
2019-03-20T06:32:46.922Z,101616.61
2019-03-20T06:36:51.221Z,101617.36
2019-03-20T06:40:55.440Z,101616.89
2019-03-20T06:44:59.700Z,101628.67
2019-03-20T06:49:04.076Z,101622.01
2019-03-20T06:53:08.288Z,101630.77
2019-03-20T06:57:12.520Z,101628.66
2019-03-20T07:01:24.857Z,101629.41
2019-03-20T07:05:59.871Z,101637.08
2019-03-20T07:10:32.521Z,101647.88
2019-03-20T07:14:36.714Z,101647.81
2019-03-20T07:18:40.960Z,101660.95
2019-03-20T07:22:45.635Z,101648.08
2019-03-20T07:26:49.790Z,101657.06
2019-03-20T07:30:54.049Z,101660.84
2019-03-20T07:34:58.275Z,101664.52
2019-03-20T07:39:02.494Z,101665.42
2019-03-20T07:43:09.181Z,101667.22
2019-03-20T07:47:12.627Z,101669.72
2019-03-20T07:51:16.854Z,101678.45
2019-03-20T07:55:21.440Z,101675.76
2019-03-20T07:59:26.059Z,101678.93
2019-03-20T08:03:30.275Z,101689.14
2019-03-20T08:07:34.489Z,101684.46
2019-03-20T08:11:38.719Z,101695.75
2019-03-20T08:15:43.250Z,101688.30
2019-03-20T08:19:47.473Z,101687.20
2019-03-20T08:23:51.645Z,101690.90
2019-03-20T08:27:55.845Z,101693.97
2019-03-20T08:32:00.051Z,101687.36
2019-03-20T08:36:04.535Z,101681.59
2019-03-20T08:40:09.873Z,101678.52
2019-03-20T08:44:14.098Z,101687.58
2019-03-20T08:48:27.218Z,101693.44
2019-03-20T08:52:31.473Z,101688.00
2019-03-20T08:56:35.750Z,101694.28
2019-03-20T09:00:40.084Z,101689.63
2019-03-20T09:04:44.319Z,101692.44
2019-03-20T09:08:48.483Z,101690.56
2019-03-20T09:12:52.716Z,101694.15
2019-03-20T09:16:56.955Z,101692.45
2019-03-20T09:21:01.175Z,101693.84
2019-03-20T09:25:06.451Z,101694.09
2019-03-20T09:29:18.667Z,101693.95
2019-03-20T09:33:16.746Z,101685.82
2019-03-20T09:37:21.561Z,101693.69
2019-03-20T09:41:25.799Z,101689.55
2019-03-20T09:45:30.016Z,101677.86
2019-03-20T09:49:34.294Z,101680.49
2019-03-20T09:53:38.513Z,101694.67
2019-03-20T09:57:42.794Z,101683.53
2019-03-20T10:01:47.134Z,101678.46
2019-03-20T10:05:51.333Z,101676.93
2019-03-20T10:09:55.553Z,101673.80
2019-03-20T10:13:59.857Z,101674.42
2019-03-20T10:18:04.345Z,101675.81
2019-03-20T10:22:08.508Z,101679.61
2019-03-20T10:26:12.927Z,101673.84
2019-03-20T10:30:19.425Z,101674.73
2019-03-20T10:34:23.710Z,101680.54
2019-03-20T10:38:28.021Z,101678.95
2019-03-20T10:42:32.249Z,101686.47
2019-03-20T10:46:36.462Z,101688.14
2019-03-20T10:50:40.724Z,101690.05
2019-03-20T10:54:44.991Z,101690.13
2019-03-20T10:58:49.220Z,101692.80
2019-03-20T11:02:53.822Z,101676.83
2019-03-20T11:06:58.114Z,101680.84
2019-03-20T11:11:02.690Z,101681.34
2019-03-20T11:15:08.672Z,101684.78
2019-03-20T11:19:13.414Z,101682.82
2019-03-20T11:23:17.619Z,101686.50
2019-03-20T11:27:21.886Z,101687.69
2019-03-20T11:31:26.110Z,101685.05
2019-03-20T11:35:30.876Z,101682.36
2019-03-20T11:39:35.244Z,101685.55
2019-03-20T11:43:39.479Z,101685.64
2019-03-20T11:47:43.764Z,101688.63
2019-03-20T11:51:48.058Z,101686.37
2019-03-20T11:55:52.283Z,101679.22
2019-03-20T11:59:56.534Z,101682.50
2019-03-20T12:04:01.410Z,101681.37
2019-03-20T12:08:05.675Z,101683.78
2019-03-20T12:12:09.997Z,101677.93
2019-03-20T12:16:14.249Z,101668.63
2019-03-20T12:20:19.303Z,101668.03
2019-03-20T12:24:23.546Z,101671.80
2019-03-20T12:28:27.778Z,101669.47
2019-03-20T12:32:32.042Z,101670.78
2019-03-20T12:36:36.230Z,101669.23
2019-03-20T12:40:40.767Z,101656.48
2019-03-20T12:44:45.024Z,101649.30
2019-03-20T12:48:49.232Z,101650.68
2019-03-20T12:52:53.434Z,101647.44
2019-03-20T12:56:57.712Z,101638.00
2019-03-20T13:01:01.954Z,101644.69
2019-03-20T13:05:07.213Z,101640.05
2019-03-20T13:09:11.449Z,101640.63
2019-03-20T13:13:15.765Z,101637.37
2019-03-20T13:17:19.998Z,101639.88
2019-03-20T13:21:25.632Z,101630.31
2019-03-20T13:25:29.838Z,101631.42
2019-03-20T13:29:34.099Z,101631.55
2019-03-20T13:33:39.114Z,101628.28
2019-03-20T13:37:43.333Z,101624.27
2019-03-20T13:41:47.650Z,101626.16
2019-03-20T13:45:51.846Z,101629.98
2019-03-20T13:49:56.071Z,101627.54
2019-03-20T13:54:00.430Z,101626.08
2019-03-20T13:58:04.645Z,101626.53
2019-03-20T14:02:09.102Z,101639.25
2019-03-20T14:06:14.470Z,101635.86
2019-03-20T14:10:25.197Z,101635.37
2019-03-20T14:14:25.754Z,101628.55
2019-03-20T14:18:30.153Z,101629.16
2019-03-20T14:22:34.403Z,101636.37
2019-03-20T14:26:38.770Z,101627.72
2019-03-20T14:30:43.189Z,101632.34
2019-03-20T14:34:47.823Z,101629.47
2019-03-20T14:38:52.115Z,101630.27
2019-03-20T14:42:56.354Z,101623.27
2019-03-20T14:47:00.881Z,101628.46
2019-03-20T14:51:05.109Z,101629.26
2019-03-20T14:55:10.368Z,101620.45
2019-03-20T14:59:14.696Z,101631.45
2019-03-20T15:03:18.877Z,101619.87
2019-03-20T15:07:23.151Z,101615.81
2019-03-20T15:11:27.849Z,101615.23
2019-03-20T15:15:55.730Z,101612.11
2019-03-20T15:20:00.311Z,101609.36
2019-03-20T15:24:04.564Z,101604.22
2019-03-20T15:28:08.885Z,101597.78
2019-03-20T15:32:13.283Z,101600.59
2019-03-20T15:36:17.555Z,101602.42
2019-03-20T15:40:21.932Z,101599.22
2019-03-20T15:44:26.165Z,101599.09
2019-03-20T15:48:30.370Z,101598.97
2019-03-20T15:52:34.606Z,101606.27
2019-03-20T15:56:39.050Z,101615.34
2019-03-20T16:00:43.383Z,101613.78
2019-03-20T16:04:47.560Z,101611.82
2019-03-20T16:08:55.048Z,101623.83
2019-03-20T16:12:59.085Z,101629.45
2019-03-20T16:17:03.469Z,101634.34
2019-03-20T16:21:07.858Z,101627.19
2019-03-20T16:25:13.046Z,101638.65
2019-03-20T16:29:17.262Z,101634.34
2019-03-20T16:33:21.518Z,101632.91
2019-03-20T16:37:25.815Z,101633.76
2019-03-20T16:41:30.018Z,101640.20
2019-03-20T16:45:35.467Z,101639.77
2019-03-20T16:49:39.717Z,101643.54
2019-03-20T16:53:43.972Z,101649.38
2019-03-20T16:57:48.190Z,101653.19
2019-03-20T17:01:52.430Z,101656.78
2019-03-20T17:05:56.822Z,101657.37
2019-03-20T17:10:01.007Z,101659.41
2019-03-20T17:14:05.587Z,101662.66
2019-03-20T17:18:10.155Z,101670.84
2019-03-20T17:22:14.617Z,101679.44
2019-03-20T17:26:20.081Z,101682.56
2019-03-20T17:30:35.390Z,101688.63
2019-03-20T17:34:39.919Z,101696.58
2019-03-20T17:38:44.489Z,101700.69
2019-03-20T17:42:48.797Z,101706.06
2019-03-20T17:46:53.100Z,101706.14
2019-03-20T17:50:57.315Z,101706.06
2019-03-20T17:55:01.567Z,101710.93
2019-03-20T17:59:06.200Z,101722.41
2019-03-20T18:03:10.744Z,101718.45
2019-03-20T18:07:14.970Z,101721.52
2019-03-20T18:11:19.214Z,101721.05
2019-03-20T18:15:23.490Z,101724.66
2019-03-20T18:19:27.754Z,101719.77
2019-03-20T18:23:31.991Z,101720.20
2019-03-20T18:27:36.221Z,101725.37
2019-03-20T18:31:45.888Z,101727.92
2019-03-20T18:35:46.484Z,101725.09
2019-03-20T18:39:51.029Z,101732.42
2019-03-20T18:43:55.297Z,101739.98
2019-03-20T18:47:59.517Z,101746.28
2019-03-20T18:52:03.715Z,101750.77
2019-03-20T18:56:08.137Z,101747.03
2019-03-20T19:00:15.436Z,101748.20
2019-03-20T19:04:19.607Z,101746.59
2019-03-20T19:08:23.838Z,101745.09
2019-03-20T19:12:28.232Z,101749.30
2019-03-20T19:16:32.459Z,101754.09
2019-03-20T19:20:36.821Z,101758.45
2019-03-20T19:24:41.189Z,101758.57
2019-03-20T19:28:45.694Z,101762.42
2019-03-20T19:32:49.956Z,101764.19
2019-03-20T19:36:54.159Z,101772.51
2019-03-20T19:40:58.827Z,101778.93
2019-03-20T19:45:03.355Z,101776.33
2019-03-20T19:49:08.007Z,101781.71
2019-03-20T19:53:12.319Z,101786.13
2019-03-20T19:57:16.653Z,101786.25
2019-03-20T20:01:20.942Z,101786.61
2019-03-20T20:05:25.401Z,101785.81
2019-03-20T20:09:29.623Z,101789.08
2019-03-20T20:13:33.866Z,101788.52
2019-03-20T20:17:38.562Z,101793.34
2019-03-20T20:21:42.967Z,101791.23
2019-03-20T20:25:47.393Z,101797.39
2019-03-20T20:29:51.817Z,101796.16
2019-03-20T20:33:56.167Z,101796.33
2019-03-20T20:38:00.621Z,101790.28
2019-03-20T20:42:05.210Z,101785.13
2019-03-20T20:46:09.454Z,101786.10
2019-03-20T20:50:14.295Z,101783.64
2019-03-20T20:54:18.602Z,101799.49
2019-03-20T20:58:22.824Z,101794.37
2019-03-20T21:02:27.698Z,101788.46
2019-03-20T21:06:32.093Z,101795.41
2019-03-20T21:10:36.678Z,101794.82
2019-03-20T21:14:41.047Z,101799.91
2019-03-20T21:19:22.447Z,101795.81
2019-03-20T21:24:12.750Z,101796.14
2019-03-20T21:28:59.043Z,101805.11
2019-03-20T21:33:04.958Z,101810.48
2019-03-20T21:37:45.015Z,101813.67
2019-03-20T21:42:39.917Z,101820.08
2019-03-20T21:47:33.501Z,101814.82
2019-03-20T21:51:39.583Z,101812.50
2019-03-20T21:56:20.998Z,101813.86
2019-03-20T22:01:09.366Z,101815.34
2019-03-20T22:05:35.039Z,101818.23
2019-03-20T22:10:21.404Z,101826.25
2019-03-20T22:14:26.296Z,101822.99
2019-03-20T22:18:59.473Z,101824.95
2019-03-20T22:23:28.096Z,101820.66
2019-03-20T22:27:53.384Z,101825.92
2019-03-20T22:32:53.736Z,101831.69
2019-03-20T22:36:58.615Z,101833.31
2019-03-20T22:41:40.251Z,101832.14
2019-03-20T22:46:19.792Z,101834.23
2019-03-20T22:50:38.685Z,101832.94
2019-03-20T22:55:38.801Z,101832.27
2019-03-20T22:59:43.601Z,101833.58
2019-03-20T23:03:52.995Z,101832.36
2019-03-20T23:07:57.968Z,101826.63
2019-03-20T23:12:05.288Z,101826.20
2019-03-20T23:16:11.342Z,101828.73
2019-03-20T23:20:18.912Z,101838.31
2019-03-20T23:24:23.634Z,101831.02
2019-03-20T23:28:28.402Z,101835.09
2019-03-20T23:32:33.335Z,101844.81
2019-03-20T23:36:38.177Z,101843.66
2019-03-20T23:40:43.000Z,101842.64
2019-03-20T23:44:47.784Z,101848.89
2019-03-20T23:48:59.638Z,101844.37
2019-03-20T23:53:05.322Z,101848.39
2019-03-20T23:57:10.208Z,101846.20
